createdAt,value
2023-03-26T00:01:00.275Z,96775.91
2023-03-26T00:03:35.858Z,96774.82
2023-03-26T00:06:06.801Z,96773.89
2023-03-26T00:08:33.797Z,96773.59
2023-03-26T00:11:01.203Z,96772.44
2023-03-26T00:13:27.972Z,96772.41
2023-03-26T00:15:54.404Z,96776.25
2023-03-26T00:18:20.908Z,96773.02
2023-03-26T00:20:47.337Z,96769.77
2023-03-26T00:23:13.649Z,96771.14
2023-03-26T00:25:39.965Z,96770.89
2023-03-26T00:28:06.802Z,96768.84
2023-03-26T00:30:33.657Z,96769.19
2023-03-26T00:33:00.145Z,96770.80
2023-03-26T00:35:26.614Z,96769.85
2023-03-26T00:37:52.866Z,96766.79
2023-03-26T00:40:19.192Z,96766.54
2023-03-26T00:42:45.495Z,96765.59
2023-03-26T00:45:11.852Z,96767.38
2023-03-26T00:47:38.227Z,96772.52
2023-03-26T00:50:05.735Z,96777.66
2023-03-26T00:52:32.039Z,96771.11
2023-03-26T00:54:58.477Z,96776.23
2023-03-26T00:57:34.875Z,96770.59
2023-03-26T01:00:06.672Z,96764.89
2023-03-26T01:02:33.143Z,96755.84
2023-03-26T01:04:59.598Z,96749.62
2023-03-26T01:07:26.107Z,96750.34
2023-03-26T01:09:53.320Z,96754.24
2023-03-26T01:12:21.611Z,96752.94
2023-03-26T01:14:51.119Z,96753.04
2023-03-26T01:17:18.434Z,96750.76
2023-03-26T01:19:45.000Z,96743.89
2023-03-26T01:22:16.367Z,96742.58
2023-03-26T01:24:42.726Z,96741.34
2023-03-26T01:27:13.436Z,96741.18
2023-03-26T01:29:42.750Z,96737.55
2023-03-26T01:32:17.936Z,96742.63
2023-03-26T01:34:47.357Z,96739.73
2023-03-26T01:37:36.538Z,96741.73
2023-03-26T01:40:08.229Z,96738.70
2023-03-26T01:42:47.665Z,96734.38
2023-03-26T01:45:18.347Z,96726.65
2023-03-26T01:47:45.628Z,96726.86
2023-03-26T01:50:12.768Z,96723.66
2023-03-26T01:52:39.265Z,96720.59
2023-03-26T01:55:06.927Z,96724.16
2023-03-26T01:57:39.520Z,96722.09
2023-03-26T02:00:11.861Z,96723.91
2023-03-26T02:02:44.269Z,96719.10
2023-03-26T02:05:20.541Z,96719.04
2023-03-26T02:07:53.650Z,96716.44
2023-03-26T02:10:23.313Z,96723.16
2023-03-26T02:12:50.163Z,96722.17
2023-03-26T02:15:16.747Z,96719.04
2023-03-26T02:17:43.058Z,96719.98
2023-03-26T02:20:10.648Z,96719.63
2023-03-26T02:22:37.795Z,96717.16
2023-03-26T02:25:04.422Z,96714.83
2023-03-26T02:27:31.491Z,96719.27
2023-03-26T02:29:57.791Z,96724.49
2023-03-26T02:32:24.234Z,96723.68
2023-03-26T02:34:50.668Z,96720.42
2023-03-26T02:37:17.524Z,96725.52
2023-03-26T02:39:44.482Z,96727.94
2023-03-26T02:42:19.646Z,96731.65
2023-03-26T02:44:47.491Z,96730.40
2023-03-26T02:47:19.660Z,96727.87
2023-03-26T02:49:51.977Z,96729.52
2023-03-26T02:52:38.717Z,96738.00
2023-03-26T02:55:05.895Z,96733.42
2023-03-26T02:57:32.703Z,96730.59
2023-03-26T03:00:22.049Z,96732.09
2023-03-26T03:03:07.432Z,96730.84
2023-03-26T03:05:33.778Z,96722.86
2023-03-26T03:08:21.336Z,96723.82
2023-03-26T03:11:12.764Z,96718.99
2023-03-26T03:13:48.201Z,96704.13
2023-03-26T03:16:34.864Z,96702.70
2023-03-26T03:19:06.469Z,96703.23
2023-03-26T03:21:37.561Z,96696.13
2023-03-26T03:24:04.294Z,96699.20
2023-03-26T03:26:34.174Z,96690.77
2023-03-26T03:29:11.270Z,96691.58
2023-03-26T03:31:37.638Z,96702.70
2023-03-26T03:34:04.853Z,96702.35
2023-03-26T03:36:33.963Z,96704.58
2023-03-26T03:39:07.886Z,96708.20
2023-03-26T03:41:34.977Z,96710.98
2023-03-26T03:44:02.775Z,96705.54
2023-03-26T03:46:30.553Z,96703.46
2023-03-26T03:48:57.278Z,96701.30
2023-03-26T03:51:27.506Z,96700.17
2023-03-26T03:53:58.733Z,96703.81
2023-03-26T03:56:45.743Z,96712.34
2023-03-26T03:59:12.137Z,96709.84
2023-03-26T04:01:38.450Z,96707.33
2023-03-26T04:04:08.619Z,96708.17
2023-03-26T04:06:45.189Z,96705.96
2023-03-26T04:09:12.246Z,96704.42
2023-03-26T04:11:38.980Z,96705.02
2023-03-26T04:14:34.120Z,96706.59
2023-03-26T04:17:07.973Z,96706.79
2023-03-26T04:19:35.861Z,96706.63
2023-03-26T04:22:02.212Z,96709.30
2023-03-26T04:24:31.437Z,96709.65
2023-03-26T04:27:04.273Z,96709.23
2023-03-26T04:29:40.140Z,96707.92
2023-03-26T04:32:10.445Z,96706.33
2023-03-26T04:34:36.949Z,96705.31
2023-03-26T04:37:14.289Z,96704.98
2023-03-26T04:39:43.113Z,96697.54
2023-03-26T04:42:29.595Z,96699.23
2023-03-26T04:45:05.780Z,96692.38
2023-03-26T04:47:32.360Z,96690.64
2023-03-26T04:49:59.531Z,96691.25
2023-03-26T04:52:26.960Z,96695.33
2023-03-26T04:55:18.821Z,96699.32
2023-03-26T04:57:49.501Z,96696.46
2023-03-26T05:00:35.631Z,96691.23
2023-03-26T05:03:02.007Z,96695.42
2023-03-26T05:05:28.847Z,96693.96
2023-03-26T05:07:59.199Z,96694.45
2023-03-26T05:10:25.716Z,96701.13
2023-03-26T05:12:57.051Z,96696.94
2023-03-26T05:15:26.605Z,96696.54
2023-03-26T05:18:11.656Z,96699.46
2023-03-26T05:20:43.668Z,96698.19
2023-03-26T05:23:10.158Z,96696.48
2023-03-26T05:25:39.994Z,96702.13
2023-03-26T05:28:12.926Z,96701.90
2023-03-26T05:30:54.009Z,96688.63
2023-03-26T05:33:21.432Z,96690.90
2023-03-26T05:36:19.325Z,96701.61
2023-03-26T05:39:08.608Z,96695.98
2023-03-26T05:41:53.819Z,96698.14
2023-03-26T05:44:22.079Z,96694.22
2023-03-26T05:46:48.400Z,96693.58
2023-03-26T05:49:19.688Z,96691.00
2023-03-26T05:51:46.452Z,96693.73
2023-03-26T05:54:51.140Z,96689.83
2023-03-26T05:57:36.181Z,96694.27
2023-03-26T06:00:35.097Z,96696.71
2023-03-26T06:03:01.877Z,96694.29
2023-03-26T06:05:44.295Z,96697.66
2023-03-26T06:08:16.368Z,96700.56
2023-03-26T06:10:49.163Z,96702.21
2023-03-26T06:13:15.824Z,96698.39
2023-03-26T06:15:43.256Z,96699.64
2023-03-26T06:18:29.806Z,96705.06
2023-03-26T06:21:19.110Z,96707.13
2023-03-26T06:23:52.579Z,96709.12
2023-03-26T06:26:48.261Z,96712.17
2023-03-26T06:29:17.558Z,96718.89
2023-03-26T06:31:55.315Z,96718.47
2023-03-26T06:34:25.416Z,96716.33
2023-03-26T06:36:51.741Z,96715.45
2023-03-26T06:39:19.570Z,96712.14
2023-03-26T06:42:05.229Z,96716.92
2023-03-26T06:44:45.411Z,96709.20
2023-03-26T06:47:38.325Z,96700.63
2023-03-26T06:50:23.856Z,96708.59
2023-03-26T06:53:25.709Z,96710.52
2023-03-26T06:55:57.151Z,96708.55
2023-03-26T06:58:23.427Z,96708.83
2023-03-26T07:01:18.840Z,96707.27
2023-03-26T07:04:04.147Z,96704.56
2023-03-26T07:06:49.630Z,96704.75
2023-03-26T07:09:42.020Z,96705.92
2023-03-26T07:12:27.330Z,96708.80
2023-03-26T07:15:13.912Z,96704.44
2023-03-26T07:17:59.849Z,96706.88
2023-03-26T07:20:32.741Z,96704.69
2023-03-26T07:22:59.429Z,96707.34
2023-03-26T07:25:34.785Z,96708.45
2023-03-26T07:29:04.464Z,96707.52
2023-03-26T07:32:19.006Z,96707.46
2023-03-26T07:35:07.299Z,96709.61
2023-03-26T07:37:59.676Z,96707.08
2023-03-26T07:40:28.699Z,96709.86
2023-03-26T07:43:43.028Z,96708.64
2023-03-26T07:46:29.376Z,96713.36
2023-03-26T07:49:19.625Z,96708.19
2023-03-26T07:52:02.790Z,96703.35
2023-03-26T07:54:49.920Z,96701.92
2023-03-26T07:57:35.021Z,96704.04
2023-03-26T08:00:30.822Z,96701.52
2023-03-26T08:03:03.462Z,96706.42
2023-03-26T08:06:31.274Z,96714.48
2023-03-26T08:09:17.314Z,96710.23
2023-03-26T08:12:04.835Z,96708.58
2023-03-26T08:14:48.470Z,96708.52
2023-03-26T08:17:15.045Z,96711.20
2023-03-26T08:19:56.041Z,96713.74
2023-03-26T08:22:32.460Z,96705.36
2023-03-26T08:25:01.603Z,96706.66
2023-03-26T08:27:31.166Z,96701.63
2023-03-26T08:30:07.142Z,96701.62
2023-03-26T08:32:33.797Z,96693.75
2023-03-26T08:35:00.212Z,96697.14
2023-03-26T08:37:26.688Z,96696.30
2023-03-26T08:39:53.646Z,96693.35
2023-03-26T08:42:32.195Z,96689.96
2023-03-26T08:45:17.237Z,96680.65
2023-03-26T08:48:02.741Z,96677.56
2023-03-26T08:50:47.814Z,96673.30
2023-03-26T08:53:33.209Z,96676.70
2023-03-26T08:56:25.757Z,96686.66
2023-03-26T08:59:12.896Z,96687.06
2023-03-26T09:01:57.854Z,96681.06
2023-03-26T09:04:43.151Z,96674.88
2023-03-26T09:07:27.881Z,96671.30
2023-03-26T09:10:06.111Z,96677.45
2023-03-26T09:12:32.546Z,96677.50
2023-03-26T09:15:31.323Z,96673.58
2023-03-26T09:18:14.630Z,96672.07
2023-03-26T09:21:00.049Z,96672.58
2023-03-26T09:23:26.633Z,96676.40
2023-03-26T09:26:03.006Z,96665.39
2023-03-26T09:28:32.313Z,96665.91
2023-03-26T09:31:20.685Z,96668.63
2023-03-26T09:33:47.222Z,96673.33
2023-03-26T09:36:16.556Z,96665.61
2023-03-26T09:38:44.298Z,96659.33
2023-03-26T09:41:31.223Z,96662.45
2023-03-26T09:44:13.035Z,96661.95
2023-03-26T09:46:46.544Z,96663.98
2023-03-26T09:49:29.328Z,96666.48
2023-03-26T09:52:00.797Z,96669.39
2023-03-26T09:54:27.104Z,96664.83
2023-03-26T09:57:02.379Z,96667.64
2023-03-26T09:59:34.752Z,96670.17
2023-03-26T10:02:47.035Z,96667.34
2023-03-26T10:05:20.575Z,96675.06
2023-03-26T10:07:52.710Z,96670.06
2023-03-26T10:10:32.473Z,96666.86
2023-03-26T10:13:11.636Z,96670.27
2023-03-26T10:15:44.323Z,96668.83
2023-03-26T10:18:34.367Z,96664.80
2023-03-26T10:21:10.729Z,96666.13
2023-03-26T10:23:37.218Z,96652.39
2023-03-26T10:26:03.655Z,96647.33
2023-03-26T10:28:42.055Z,96645.14
2023-03-26T10:31:11.746Z,96644.31
2023-03-26T10:33:38.062Z,96647.80
2023-03-26T10:36:04.571Z,96640.73
2023-03-26T10:38:33.984Z,96640.61
2023-03-26T10:41:18.830Z,96644.52
2023-03-26T10:44:08.514Z,96640.55
2023-03-26T10:46:46.611Z,96640.95
2023-03-26T10:49:15.693Z,96644.27
2023-03-26T10:51:43.087Z,96656.32
2023-03-26T10:54:12.148Z,96651.30
2023-03-26T10:56:45.789Z,96648.29
2023-03-26T10:59:14.879Z,96653.30
2023-03-26T11:01:42.162Z,96648.34
2023-03-26T11:04:24.616Z,96643.27
2023-03-26T11:06:51.801Z,96638.23
2023-03-26T11:09:22.518Z,96627.00
2023-03-26T11:11:59.606Z,96630.98
2023-03-26T11:14:34.295Z,96621.20
2023-03-26T11:17:40.646Z,96618.65
2023-03-26T11:20:04.895Z,96619.18
2023-03-26T11:22:44.408Z,96619.07
2023-03-26T11:25:26.235Z,96623.55
2023-03-26T11:28:05.746Z,96616.23
2023-03-26T11:30:37.321Z,96620.64
2023-03-26T11:33:06.090Z,96616.25
2023-03-26T11:35:42.825Z,96607.65
2023-03-26T11:38:17.533Z,96605.41
2023-03-26T11:40:46.800Z,96603.14
2023-03-26T11:43:21.924Z,96600.00
2023-03-26T11:45:49.887Z,96603.14
2023-03-26T11:48:22.922Z,96603.55
2023-03-26T11:50:58.958Z,96600.05
2023-03-26T11:53:28.154Z,96596.69
2023-03-26T11:55:57.487Z,96590.87
2023-03-26T11:58:29.908Z,96583.29
2023-03-26T12:00:57.357Z,96588.13
2023-03-26T12:03:24.922Z,96580.79
2023-03-26T12:05:57.000Z,96574.44
2023-03-26T12:08:29.966Z,96574.88
2023-03-26T12:11:03.702Z,96579.67
2023-03-26T12:13:39.618Z,96571.30
2023-03-26T12:16:09.278Z,96571.95
2023-03-26T12:18:36.407Z,96579.00
2023-03-26T12:21:16.800Z,96575.41
2023-03-26T12:23:43.833Z,96572.73
2023-03-26T12:26:13.091Z,96571.63
2023-03-26T12:28:43.341Z,96569.73
2023-03-26T12:31:11.233Z,96562.69
2023-03-26T12:33:37.642Z,96563.02
2023-03-26T12:36:16.401Z,96556.15
2023-03-26T12:38:42.714Z,96547.35
2023-03-26T12:44:48.414Z,96546.11
2023-03-26T12:44:55.538Z,96534.86
2023-03-26T12:47:55.242Z,96528.95
2023-03-26T12:49:31.249Z,96517.45
2023-03-26T12:52:09.405Z,96513.09
2023-03-26T12:54:42.297Z,96515.98
2023-03-26T12:57:12.148Z,96510.82
2023-03-26T12:59:58.123Z,96509.09
2023-03-26T13:02:33.474Z,96506.45
2023-03-26T13:05:07.121Z,96507.14
2023-03-26T13:07:37.350Z,96499.23
2023-03-26T13:10:22.892Z,96496.66
2023-03-26T13:13:12.376Z,96492.85
2023-03-26T13:15:43.665Z,96484.58
2023-03-26T13:18:28.686Z,96487.54
2023-03-26T13:21:11.956Z,96492.68
2023-03-26T13:23:50.496Z,96482.58
2023-03-26T13:26:25.687Z,96481.60
2023-03-26T13:29:06.719Z,96477.84
2023-03-26T13:31:33.387Z,96476.45
2023-03-26T13:34:09.061Z,96482.56
2023-03-26T13:36:46.357Z,96476.21
2023-03-26T13:39:12.686Z,96477.15
2023-03-26T13:41:39.208Z,96472.02
2023-03-26T13:44:12.780Z,96462.71
2023-03-26T13:46:44.284Z,96464.06
2023-03-26T13:49:12.518Z,96459.86
2023-03-26T13:51:38.807Z,96458.56
2023-03-26T13:54:24.540Z,96463.90
2023-03-26T13:57:20.186Z,96462.99
2023-03-26T13:59:46.556Z,96464.23
2023-03-26T14:02:36.576Z,96473.30
2023-03-26T14:05:07.303Z,96470.94
2023-03-26T14:07:46.826Z,96472.05
2023-03-26T14:10:22.440Z,96473.42
2023-03-26T14:12:49.309Z,96471.73
2023-03-26T14:15:26.866Z,96473.51
2023-03-26T14:17:53.767Z,96473.46
2023-03-26T14:20:26.003Z,96477.77
2023-03-26T14:23:01.450Z,96471.91
2023-03-26T14:25:35.014Z,96471.23
2023-03-26T14:28:10.636Z,96470.40
2023-03-26T14:30:49.800Z,96470.23
2023-03-26T14:33:27.295Z,96466.23
2023-03-26T14:36:12.801Z,96466.61
2023-03-26T14:38:57.442Z,96467.24
2023-03-26T14:41:26.843Z,96469.36
2023-03-26T14:44:02.559Z,96466.96
2023-03-26T14:46:35.934Z,96469.15
2023-03-26T14:49:18.744Z,96460.80
2023-03-26T14:51:45.229Z,96464.20
2023-03-26T14:54:12.998Z,96468.42
2023-03-26T14:56:57.876Z,96466.07
2023-03-26T14:59:27.287Z,96466.81
2023-03-26T15:02:23.232Z,96462.05
2023-03-26T15:05:08.605Z,96458.35
2023-03-26T15:07:41.220Z,96459.56
2023-03-26T15:10:13.556Z,96458.47
2023-03-26T15:12:39.881Z,96453.38
2023-03-26T15:15:25.128Z,96452.09
2023-03-26T15:17:57.806Z,96446.49
2023-03-26T15:20:33.577Z,96449.83
2023-03-26T15:23:00.200Z,96456.95
2023-03-26T15:25:26.540Z,96459.54
2023-03-26T15:28:19.313Z,96460.77
2023-03-26T15:31:07.383Z,96457.36
2023-03-26T15:33:40.114Z,96448.71
2023-03-26T15:36:42.276Z,96442.61
2023-03-26T15:39:27.195Z,96436.89
2023-03-26T15:42:03.817Z,96435.36
2023-03-26T15:44:50.785Z,96425.34
2023-03-26T15:47:25.804Z,96426.48
2023-03-26T15:50:08.021Z,96428.25
2023-03-26T15:52:53.366Z,96443.20
2023-03-26T15:55:47.208Z,96453.33
2023-03-26T15:58:24.395Z,96442.86
2023-03-26T16:00:53.798Z,96443.54
2023-03-26T16:03:40.285Z,96441.30
2023-03-26T16:06:28.839Z,96438.52
2023-03-26T16:09:01.659Z,96434.45
2023-03-26T16:11:43.581Z,96431.52
2023-03-26T16:14:18.629Z,96425.45
2023-03-26T16:16:47.852Z,96425.38
2023-03-26T16:19:20.767Z,96424.17
2023-03-26T16:22:13.368Z,96421.55
2023-03-26T16:24:43.971Z,96424.80
2023-03-26T16:27:13.355Z,96423.40
2023-03-26T16:29:59.152Z,96425.41
2023-03-26T16:32:32.569Z,96425.09
2023-03-26T16:35:14.731Z,96421.77
2023-03-26T16:37:42.741Z,96424.22
2023-03-26T16:40:18.438Z,96419.92
2023-03-26T16:43:03.843Z,96418.79
2023-03-26T16:45:37.473Z,96416.08
2023-03-26T16:48:22.790Z,96414.70
2023-03-26T16:50:54.512Z,96410.79
2023-03-26T16:53:36.685Z,96409.04
2023-03-26T16:56:11.298Z,96409.54
2023-03-26T16:59:00.241Z,96408.17
2023-03-26T17:01:26.752Z,96410.37
2023-03-26T17:03:53.326Z,96413.13
2023-03-26T17:06:30.911Z,96411.80
2023-03-26T17:09:12.501Z,96415.41
2023-03-26T17:11:54.663Z,96411.63
2023-03-26T17:14:30.365Z,96411.08
2023-03-26T17:17:07.981Z,96415.36
2023-03-26T17:19:34.460Z,96415.52
2023-03-26T17:22:00.839Z,96415.77
2023-03-26T17:24:46.202Z,96416.27
2023-03-26T17:27:39.073Z,96416.93
2023-03-26T17:30:29.019Z,96417.50
2023-03-26T17:32:57.843Z,96420.44
2023-03-26T17:35:36.310Z,96418.90
2023-03-26T17:38:03.631Z,96420.69
2023-03-26T17:40:42.941Z,96425.10
2023-03-26T17:43:10.857Z,96422.52
2023-03-26T17:45:38.361Z,96418.48
2023-03-26T17:48:09.497Z,96421.45
2023-03-26T17:50:57.725Z,96416.13
2023-03-26T17:53:27.960Z,96418.48
2023-03-26T17:55:59.440Z,96418.89
2023-03-26T17:58:29.085Z,96421.48
2023-03-26T18:01:04.365Z,96423.56
2023-03-26T18:03:35.731Z,96426.16
2023-03-26T18:06:06.060Z,96420.09
2023-03-26T18:08:52.918Z,96416.34
2023-03-26T18:11:29.535Z,96417.17
2023-03-26T18:14:13.215Z,96413.46
2023-03-26T18:16:41.795Z,96411.27
2023-03-26T18:19:13.339Z,96409.59
2023-03-26T18:21:40.673Z,96407.88
2023-03-26T18:24:10.543Z,96410.80
2023-03-26T18:26:37.839Z,96408.87
2023-03-26T18:29:11.064Z,96408.23
2023-03-26T18:31:41.820Z,96407.92
2023-03-26T18:34:12.965Z,96411.22
2023-03-26T18:36:40.818Z,96411.30
2023-03-26T18:39:11.197Z,96412.20
2023-03-26T18:41:39.363Z,96410.66
2023-03-26T18:44:07.364Z,96410.45
2023-03-26T18:46:34.116Z,96409.66
2023-03-26T18:49:00.644Z,96406.13
2023-03-26T18:51:29.511Z,96399.02
2023-03-26T18:54:00.111Z,96403.67
2023-03-26T18:56:31.393Z,96405.94
2023-03-26T18:58:59.154Z,96412.64
2023-03-26T19:01:30.524Z,96414.44
2023-03-26T19:03:58.346Z,96409.07
2023-03-26T19:06:28.135Z,96409.12
2023-03-26T19:08:55.782Z,96413.05
2023-03-26T19:11:27.426Z,96407.02
2023-03-26T19:13:59.108Z,96398.33
2023-03-26T19:16:27.230Z,96397.58
2023-03-26T19:18:53.886Z,96397.15
2023-03-26T19:21:21.271Z,96394.16
2023-03-26T19:23:49.269Z,96398.79
2023-03-26T19:26:16.135Z,96398.66
2023-03-26T19:28:46.472Z,96399.73
2023-03-26T19:31:26.755Z,96398.73
2023-03-26T19:33:58.068Z,96400.96
2023-03-26T19:36:29.429Z,96397.95
2023-03-26T19:38:59.203Z,96395.67
2023-03-26T19:41:34.616Z,96391.87
2023-03-26T19:44:03.628Z,96385.64
2023-03-26T19:46:34.206Z,96380.16
2023-03-26T19:49:28.393Z,96377.70
2023-03-26T19:52:10.404Z,96376.38
2023-03-26T19:54:59.249Z,96377.85
2023-03-26T19:57:30.676Z,96373.23
2023-03-26T19:59:57.648Z,96369.55
2023-03-26T20:02:25.386Z,96370.73
2023-03-26T20:04:57.266Z,96371.17
2023-03-26T20:07:35.661Z,96365.80
2023-03-26T20:10:03.392Z,96363.05
2023-03-26T20:12:30.120Z,96360.52
2023-03-26T20:14:56.468Z,96360.44
2023-03-26T20:17:22.819Z,96356.29
2023-03-26T20:19:49.263Z,96358.11
2023-03-26T20:22:17.095Z,96358.06
2023-03-26T20:24:43.787Z,96357.52
2023-03-26T20:27:10.372Z,96354.75
2023-03-26T20:29:36.692Z,96352.86
2023-03-26T20:32:03.804Z,96350.16
2023-03-26T20:34:30.533Z,96346.67
2023-03-26T20:36:56.872Z,96349.38
2023-03-26T20:39:27.869Z,96346.52
2023-03-26T20:41:54.929Z,96345.45
2023-03-26T20:44:21.466Z,96344.30
2023-03-26T20:46:48.699Z,96341.57
2023-03-26T20:49:15.274Z,96341.94
2023-03-26T20:51:41.731Z,96332.55
2023-03-26T20:54:15.526Z,96328.77
2023-03-26T20:56:42.376Z,96330.98
2023-03-26T20:59:11.513Z,96325.31
2023-03-26T21:01:38.440Z,96322.27
2023-03-26T21:04:05.539Z,96315.44
2023-03-26T21:06:31.832Z,96311.52
2023-03-26T21:08:58.376Z,96311.98
2023-03-26T21:11:43.630Z,96310.70
2023-03-26T21:14:21.228Z,96306.80
2023-03-26T21:16:47.835Z,96305.32
2023-03-26T21:19:14.308Z,96302.84
2023-03-26T21:21:46.515Z,96302.25
2023-03-26T21:24:23.525Z,96296.16
2023-03-26T21:26:49.926Z,96298.55
2023-03-26T21:29:16.464Z,96299.48
2023-03-26T21:31:42.975Z,96306.33
2023-03-26T21:34:09.610Z,96308.82
2023-03-26T21:36:36.472Z,96311.35
2023-03-26T21:39:02.929Z,96304.80
2023-03-26T21:41:38.318Z,96299.61
2023-03-26T21:44:04.670Z,96297.96
2023-03-26T21:46:31.122Z,96295.52
2023-03-26T21:48:57.671Z,96302.80
2023-03-26T21:51:24.184Z,96302.09
2023-03-26T21:53:50.634Z,96301.52
2023-03-26T21:56:35.990Z,96302.56
2023-03-26T21:59:08.336Z,96298.76
2023-03-26T22:02:13.340Z,96291.48
2023-03-26T22:04:42.709Z,96287.33
2023-03-26T22:07:15.155Z,96282.08
2023-03-26T22:09:41.578Z,96282.12
2023-03-26T22:12:07.896Z,96284.34
2023-03-26T22:14:34.323Z,96279.24
2023-03-26T22:17:00.645Z,96274.02
2023-03-26T22:19:28.178Z,96265.86
2023-03-26T22:21:56.200Z,96260.73
2023-03-26T22:24:22.557Z,96255.07
2023-03-26T22:26:49.091Z,96253.09
2023-03-26T22:29:15.388Z,96257.09
2023-03-26T22:31:41.818Z,96259.77
2023-03-26T22:34:08.254Z,96261.63
2023-03-26T22:36:34.740Z,96261.79
2023-03-26T22:39:01.126Z,96266.52
2023-03-26T22:41:27.465Z,96262.85
2023-03-26T22:43:53.786Z,96264.64
2023-03-26T22:46:20.854Z,96257.78
2023-03-26T22:48:47.375Z,96256.50
2023-03-26T22:51:14.469Z,96247.06
2023-03-26T22:53:40.782Z,96247.50
2023-03-26T22:56:07.379Z,96245.42
2023-03-26T22:58:33.895Z,96240.73
2023-03-26T23:01:03.023Z,96238.80
2023-03-26T23:03:35.270Z,96236.00
2023-03-26T23:06:03.661Z,96239.52
2023-03-26T23:08:31.073Z,96241.86
2023-03-26T23:10:57.823Z,96237.18
2023-03-26T23:13:24.844Z,96233.64
2023-03-26T23:15:52.240Z,96226.91
2023-03-26T23:18:18.679Z,96223.10
2023-03-26T23:20:48.580Z,96223.31
2023-03-26T23:23:14.904Z,96218.88
2023-03-26T23:25:43.375Z,96215.63
2023-03-26T23:28:09.812Z,96214.94
2023-03-26T23:30:36.064Z,96217.20
2023-03-26T23:33:02.370Z,96217.61
2023-03-26T23:35:28.798Z,96217.36
2023-03-26T23:37:55.060Z,96217.58
2023-03-26T23:40:21.332Z,96215.25
2023-03-26T23:42:47.668Z,96214.92
2023-03-26T23:45:14.056Z,96215.95
2023-03-26T23:47:40.882Z,96218.61
2023-03-26T23:50:08.424Z,96215.79
2023-03-26T23:52:34.751Z,96212.45
2023-03-26T23:55:01.165Z,96212.83
2023-03-26T23:57:28.352Z,96211.89
2023-03-26T23:59:54.707Z,96209.69
